sensor_id;sensor_type;location;lat;lon;timestamp;P1;durP1;ratioP1;P2;durP2;ratioP2
50555;SDS011;36508;52.512;13.450;2023-11-21T00:04:16;10.40;;;9.40;;
50555;SDS011;36508;52.512;13.450;2023-11-21T00:06:41;10.23;;;9.40;;
50555;SDS011;36508;52.512;13.450;2023-11-21T00:09:07;12.07;;;10.87;;
50555;SDS011;36508;52.512;13.450;2023-11-21T00:11:33;13.50;;;12.27;;
50555;SDS011;36508;52.512;13.450;2023-11-21T00:13:59;13.87;;;12.47;;
50555;SDS011;36508;52.512;13.450;2023-11-21T00:16:25;14.53;;;13.07;;
50555;SDS011;36508;52.512;13.450;2023-11-21T00:18:50;17.43;;;13.43;;
50555;SDS011;36508;52.512;13.450;2023-11-21T00:21:16;14.10;;;12.80;;
50555;SDS011;36508;52.512;13.450;2023-11-21T00:23:42;16.17;;;14.50;;
50555;SDS011;36508;52.512;13.450;2023-11-21T00:26:08;24.07;;;15.30;;
50555;SDS011;36508;52.512;13.450;2023-11-21T00:28:33;18.37;;;16.40;;
50555;SDS011;36508;52.512;13.450;2023-11-21T00:30:59;18.13;;;16.27;;
50555;SDS011;36508;52.512;13.450;2023-11-21T00:33:24;22.57;;;18.47;;
50555;SDS011;36508;52.512;13.450;2023-11-21T00:35:50;25.57;;;18.20;;
50555;SDS011;36508;52.512;13.450;2023-11-21T00:38:16;24.23;;;21.77;;
50555;SDS011;36508;52.512;13.450;2023-11-21T00:40:45;20.50;;;18.37;;
50555;SDS011;36508;52.512;13.450;2023-11-21T00:43:10;22.27;;;19.90;;
50555;SDS011;36508;52.512;13.450;2023-11-21T00:45:36;21.73;;;18.53;;
50555;SDS011;36508;52.512;13.450;2023-11-21T00:48:02;26.83;;;18.90;;
50555;SDS011;36508;52.512;13.450;2023-11-21T00:50:29;26.97;;;20.10;;
50555;SDS011;36508;52.512;13.450;2023-11-21T00:52:55;29.57;;;22.63;;
50555;SDS011;36508;52.512;13.450;2023-11-21T00:55:21;30.00;;;20.40;;
50555;SDS011;36508;52.512;13.450;2023-11-21T00:57:47;24.93;;;20.03;;
50555;SDS011;36508;52.512;13.450;2023-11-21T01:00:13;28.87;;;22.57;;
50555;SDS011;36508;52.512;13.450;2023-11-21T01:02:41;34.30;;;21.97;;
50555;SDS011;36508;52.512;13.450;2023-11-21T01:05:06;25.40;;;20.97;;
50555;SDS011;36508;52.512;13.450;2023-11-21T01:07:33;28.90;;;21.63;;
50555;SDS011;36508;52.512;13.450;2023-11-21T01:09:58;27.23;;;21.37;;
50555;SDS011;36508;52.512;13.450;2023-11-21T01:12:24;29.23;;;21.37;;
50555;SDS011;36508;52.512;13.450;2023-11-21T01:14:50;30.30;;;22.83;;
50555;SDS011;36508;52.512;13.450;2023-11-21T01:17:16;28.10;;;21.37;;
50555;SDS011;36508;52.512;13.450;2023-11-21T01:19:43;29.67;;;24.00;;
50555;SDS011;36508;52.512;13.450;2023-11-21T01:22:09;36.03;;;25.77;;
50555;SDS011;36508;52.512;13.450;2023-11-21T01:24:37;46.57;;;24.93;;
50555;SDS011;36508;52.512;13.450;2023-11-21T01:27:02;35.60;;;26.30;;
50555;SDS011;36508;52.512;13.450;2023-11-21T01:29:29;44.07;;;27.63;;
50555;SDS011;36508;52.512;13.450;2023-11-21T01:31:55;49.87;;;30.87;;
50555;SDS011;36508;52.512;13.450;2023-11-21T01:34:22;49.27;;;29.33;;
50555;SDS011;36508;52.512;13.450;2023-11-21T01:36:48;44.40;;;29.17;;
50555;SDS011;36508;52.512;13.450;2023-11-21T01:39:14;49.03;;;28.43;;
50555;SDS011;36508;52.512;13.450;2023-11-21T01:41:41;44.50;;;27.97;;
50555;SDS011;36508;52.512;13.450;2023-11-21T01:44:09;44.03;;;25.93;;
50555;SDS011;36508;52.512;13.450;2023-11-21T01:46:35;43.47;;;28.27;;
50555;SDS011;36508;52.512;13.450;2023-11-21T01:49:01;35.57;;;23.93;;
50555;SDS011;36508;52.512;13.450;2023-11-21T01:51:27;39.03;;;25.47;;
50555;SDS011;36508;52.512;13.450;2023-11-21T01:53:52;35.07;;;23.50;;
50555;SDS011;36508;52.512;13.450;2023-11-21T01:56:18;32.10;;;20.23;;
50555;SDS011;36508;52.512;13.450;2023-11-21T01:58:44;33.50;;;23.50;;
50555;SDS011;36508;52.512;13.450;2023-11-21T02:01:11;27.77;;;19.97;;
50555;SDS011;36508;52.512;13.450;2023-11-21T02:03:37;29.90;;;17.97;;
50555;SDS011;36508;52.512;13.450;2023-11-21T02:06:03;25.00;;;15.33;;
50555;SDS011;36508;52.512;13.450;2023-11-21T02:08:30;26.30;;;17.47;;
50555;SDS011;36508;52.512;13.450;2023-11-21T02:10:56;27.10;;;17.40;;
50555;SDS011;36508;52.512;13.450;2023-11-21T02:13:22;34.67;;;17.73;;
50555;SDS011;36508;52.512;13.450;2023-11-21T02:15:48;22.70;;;15.13;;
50555;SDS011;36508;52.512;13.450;2023-11-21T02:18:17;25.10;;;15.47;;
50555;SDS011;36508;52.512;13.450;2023-11-21T02:20:43;27.47;;;15.70;;
50555;SDS011;36508;52.512;13.450;2023-11-21T02:23:08;20.63;;;17.17;;
50555;SDS011;36508;52.512;13.450;2023-11-21T02:25:34;19.17;;;15.60;;
50555;SDS011;36508;52.512;13.450;2023-11-21T02:28:02;20.87;;;14.00;;
50555;SDS011;36508;52.512;13.450;2023-11-21T02:30:28;25.87;;;17.43;;
50555;SDS011;36508;52.512;13.450;2023-11-21T02:32:56;24.23;;;16.00;;
50555;SDS011;36508;52.512;13.450;2023-11-21T02:35:23;22.03;;;16.70;;
50555;SDS011;36508;52.512;13.450;2023-11-21T02:37:51;21.70;;;14.90;;
50555;SDS011;36508;52.512;13.450;2023-11-21T02:40:17;20.77;;;14.73;;
50555;SDS011;36508;52.512;13.450;2023-11-21T02:42:49;20.57;;;14.90;;
50555;SDS011;36508;52.512;13.450;2023-11-21T02:45:19;20.80;;;13.23;;
50555;SDS011;36508;52.512;13.450;2023-11-21T02:47:46;19.27;;;14.33;;
50555;SDS011;36508;52.512;13.450;2023-11-21T02:50:12;18.90;;;13.97;;
50555;SDS011;36508;52.512;13.450;2023-11-21T02:52:38;16.27;;;12.70;;
50555;SDS011;36508;52.512;13.450;2023-11-21T02:55:05;16.30;;;13.10;;
50555;SDS011;36508;52.512;13.450;2023-11-21T02:57:32;15.63;;;12.80;;
50555;SDS011;36508;52.512;13.450;2023-11-21T02:59:58;14.13;;;12.73;;
50555;SDS011;36508;52.512;13.450;2023-11-21T03:02:25;12.30;;;11.10;;
50555;SDS011;36508;52.512;13.450;2023-11-21T03:04:50;16.13;;;13.90;;
50555;SDS011;36508;52.512;13.450;2023-11-21T03:07:16;14.23;;;12.90;;
50555;SDS011;36508;52.512;13.450;2023-11-21T03:09:44;12.80;;;11.50;;
50555;SDS011;36508;52.512;13.450;2023-11-21T03:12:13;13.10;;;11.80;;
50555;SDS011;36508;52.512;13.450;2023-11-21T03:14:39;14.43;;;13.03;;
50555;SDS011;36508;52.512;13.450;2023-11-21T03:17:05;13.70;;;12.60;;
50555;SDS011;36508;52.512;13.450;2023-11-21T03:19:31;12.07;;;10.87;;
50555;SDS011;36508;52.512;13.450;2023-11-21T03:21:57;13.90;;;12.53;;
50555;SDS011;36508;52.512;13.450;2023-11-21T03:24:22;15.70;;;14.20;;
50555;SDS011;36508;52.512;13.450;2023-11-21T03:26:48;15.50;;;14.00;;
50555;SDS011;36508;52.512;13.450;2023-11-21T03:29:15;15.37;;;11.27;;
50555;SDS011;36508;52.512;13.450;2023-11-21T03:31:41;11.77;;;10.70;;
50555;SDS011;36508;52.512;13.450;2023-11-21T03:34:10;12.77;;;11.63;;
50555;SDS011;36508;52.512;13.450;2023-11-21T03:36:40;12.47;;;11.27;;
50555;SDS011;36508;52.512;13.450;2023-11-21T03:39:05;11.23;;;10.20;;
50555;SDS011;36508;52.512;13.450;2023-11-21T03:41:31;11.50;;;10.50;;
50555;SDS011;36508;52.512;13.450;2023-11-21T03:43:57;11.77;;;10.77;;
50555;SDS011;36508;52.512;13.450;2023-11-21T03:46:22;12.00;;;10.90;;
50555;SDS011;36508;52.512;13.450;2023-11-21T03:48:48;10.30;;;9.43;;
50555;SDS011;36508;52.512;13.450;2023-11-21T03:51:13;9.33;;;8.53;;
50555;SDS011;36508;52.512;13.450;2023-11-21T03:53:39;11.10;;;10.10;;
50555;SDS011;36508;52.512;13.450;2023-11-21T03:56:05;12.93;;;11.30;;
50555;SDS011;36508;52.512;13.450;2023-11-21T03:58:31;13.20;;;11.90;;
50555;SDS011;36508;52.512;13.450;2023-11-21T04:00:57;10.47;;;9.57;;
50555;SDS011;36508;52.512;13.450;2023-11-21T04:03:22;11.37;;;10.23;;
50555;SDS011;36508;52.512;13.450;2023-11-21T04:05:48;9.33;;;8.53;;
50555;SDS011;36508;52.512;13.450;2023-11-21T04:08:13;9.30;;;8.60;;
50555;SDS011;36508;52.512;13.450;2023-11-21T04:10:39;10.30;;;9.43;;
50555;SDS011;36508;52.512;13.450;2023-11-21T04:13:05;11.43;;;10.37;;
50555;SDS011;36508;52.512;13.450;2023-11-21T04:15:31;10.43;;;9.53;;
50555;SDS011;36508;52.512;13.450;2023-11-21T04:17:57;10.03;;;9.13;;
50555;SDS011;36508;52.512;13.450;2023-11-21T04:20:23;12.17;;;11.07;;
50555;SDS011;36508;52.512;13.450;2023-11-21T04:22:49;9.17;;;8.47;;
50555;SDS011;36508;52.512;13.450;2023-11-21T04:25:15;9.10;;;8.40;;
50555;SDS011;36508;52.512;13.450;2023-11-21T04:27:41;8.83;;;8.13;;
50555;SDS011;36508;52.512;13.450;2023-11-21T04:30:09;8.97;;;8.17;;
50555;SDS011;36508;52.512;13.450;2023-11-21T04:32:39;8.57;;;7.87;;
50555;SDS011;36508;52.512;13.450;2023-11-21T04:35:05;7.77;;;7.00;;
50555;SDS011;36508;52.512;13.450;2023-11-21T04:37:31;8.23;;;7.53;;
50555;SDS011;36508;52.512;13.450;2023-11-21T04:39:57;10.10;;;8.50;;
50555;SDS011;36508;52.512;13.450;2023-11-21T04:42:23;7.57;;;7.03;;
50555;SDS011;36508;52.512;13.450;2023-11-21T04:44:48;8.80;;;8.00;;
50555;SDS011;36508;52.512;13.450;2023-11-21T04:49:49;8.80;;;8.00;;
50555;SDS011;36508;52.512;13.450;2023-11-21T04:52:14;9.00;;;8.30;;
50555;SDS011;36508;52.512;13.450;2023-11-21T04:54:40;9.90;;;9.00;;
50555;SDS011;36508;52.512;13.450;2023-11-21T04:57:06;9.13;;;8.23;;
50555;SDS011;36508;52.512;13.450;2023-11-21T04:59:32;8.87;;;7.97;;
50555;SDS011;36508;52.512;13.450;2023-11-21T05:01:59;7.43;;;6.73;;
50555;SDS011;36508;52.512;13.450;2023-11-21T05:04:25;8.37;;;7.67;;
50555;SDS011;36508;52.512;13.450;2023-11-21T05:06:51;8.57;;;7.67;;
50555;SDS011;36508;52.512;13.450;2023-11-21T05:09:16;9.37;;;8.50;;
50555;SDS011;36508;52.512;13.450;2023-11-21T05:11:42;7.83;;;7.10;;
50555;SDS011;36508;52.512;13.450;2023-11-21T05:14:08;8.07;;;7.47;;
50555;SDS011;36508;52.512;13.450;2023-11-21T05:16:34;10.13;;;8.73;;
50555;SDS011;36508;52.512;13.450;2023-11-21T05:19:00;8.23;;;7.53;;
50555;SDS011;36508;52.512;13.450;2023-11-21T05:21:26;8.20;;;7.50;;
50555;SDS011;36508;52.512;13.450;2023-11-21T05:23:52;8.40;;;7.60;;
50555;SDS011;36508;52.512;13.450;2023-11-21T05:26:18;8.43;;;7.60;;
50555;SDS011;36508;52.512;13.450;2023-11-21T05:28:44;6.73;;;6.13;;
50555;SDS011;36508;52.512;13.450;2023-11-21T05:31:09;8.20;;;7.40;;
50555;SDS011;36508;52.512;13.450;2023-11-21T05:33:35;8.80;;;8.10;;
50555;SDS011;36508;52.512;13.450;2023-11-21T05:36:01;7.90;;;7.30;;
50555;SDS011;36508;52.512;13.450;2023-11-21T05:38:27;9.20;;;8.50;;
50555;SDS011;36508;52.512;13.450;2023-11-21T05:40:53;8.50;;;7.80;;
50555;SDS011;36508;52.512;13.450;2023-11-21T05:43:19;7.70;;;6.93;;
50555;SDS011;36508;52.512;13.450;2023-11-21T05:45:45;8.03;;;7.40;;
50555;SDS011;36508;52.512;13.450;2023-11-21T05:48:10;7.80;;;7.10;;
50555;SDS011;36508;52.512;13.450;2023-11-21T05:50:36;7.80;;;7.00;;
50555;SDS011;36508;52.512;13.450;2023-11-21T05:53:03;7.50;;;6.90;;
50555;SDS011;36508;52.512;13.450;2023-11-21T05:55:28;8.23;;;7.43;;
50555;SDS011;36508;52.512;13.450;2023-11-21T06:02:57;9.93;;;8.93;;
50555;SDS011;36508;52.512;13.450;2023-11-21T06:05:23;8.10;;;7.50;;
50555;SDS011;36508;52.512;13.450;2023-11-21T06:07:50;9.40;;;8.47;;
50555;SDS011;36508;52.512;13.450;2023-11-21T06:10:19;9.87;;;8.97;;
50555;SDS011;36508;52.512;13.450;2023-11-21T06:12:49;24.77;;;9.70;;
50555;SDS011;36508;52.512;13.450;2023-11-21T06:15:14;9.00;;;8.00;;
50555;SDS011;36508;52.512;13.450;2023-11-21T06:17:41;9.80;;;9.00;;
50555;SDS011;36508;52.512;13.450;2023-11-21T06:20:14;9.87;;;8.90;;
50555;SDS011;36508;52.512;13.450;2023-11-21T06:22:44;8.80;;;8.00;;
50555;SDS011;36508;52.512;13.450;2023-11-21T06:25:11;7.80;;;7.10;;
50555;SDS011;36508;52.512;13.450;2023-11-21T06:27:47;7.30;;;6.70;;
50555;SDS011;36508;52.512;13.450;2023-11-21T06:30:14;8.30;;;7.70;;
50555;SDS011;36508;52.512;13.450;2023-11-21T06:32:40;8.90;;;8.10;;
50555;SDS011;36508;52.512;13.450;2023-11-21T06:35:07;7.20;;;6.30;;
50555;SDS011;36508;52.512;13.450;2023-11-21T06:37:35;9.00;;;7.17;;
50555;SDS011;36508;52.512;13.450;2023-11-21T06:40:01;7.73;;;6.83;;
50555;SDS011;36508;52.512;13.450;2023-11-21T06:42:29;6.67;;;6.17;;
50555;SDS011;36508;52.512;13.450;2023-11-21T06:44:54;7.10;;;6.57;;
50555;SDS011;36508;52.512;13.450;2023-11-21T06:47:22;7.97;;;7.17;;
50555;SDS011;36508;52.512;13.450;2023-11-21T06:49:50;8.17;;;7.37;;
50555;SDS011;36508;52.512;13.450;2023-11-21T06:52:17;6.67;;;6.17;;
50555;SDS011;36508;52.512;13.450;2023-11-21T06:54:43;8.73;;;7.83;;
50555;SDS011;36508;52.512;13.450;2023-11-21T06:57:14;6.80;;;6.10;;
50555;SDS011;36508;52.512;13.450;2023-11-21T06:59:40;7.37;;;6.67;;
50555;SDS011;36508;52.512;13.450;2023-11-21T07:02:06;8.97;;;8.17;;
50555;SDS011;36508;52.512;13.450;2023-11-21T07:04:33;7.60;;;7.00;;
50555;SDS011;36508;52.512;13.450;2023-11-21T07:06:59;7.77;;;7.07;;
50555;SDS011;36508;52.512;13.450;2023-11-21T07:09:25;6.83;;;6.17;;
50555;SDS011;36508;52.512;13.450;2023-11-21T07:11:51;8.63;;;6.30;;
50555;SDS011;36508;52.512;13.450;2023-11-21T07:14:17;7.60;;;6.93;;
50555;SDS011;36508;52.512;13.450;2023-11-21T07:16:44;7.67;;;7.07;;
50555;SDS011;36508;52.512;13.450;2023-11-21T07:19:11;6.97;;;6.30;;
50555;SDS011;36508;52.512;13.450;2023-11-21T07:21:37;7.57;;;7.00;;
50555;SDS011;36508;52.512;13.450;2023-11-21T07:24:20;7.40;;;6.80;;
50555;SDS011;36508;52.512;13.450;2023-11-21T07:26:47;6.63;;;6.13;;
50555;SDS011;36508;52.512;13.450;2023-11-21T07:29:13;6.10;;;5.50;;
50555;SDS011;36508;52.512;13.450;2023-11-21T07:31:39;6.97;;;6.40;;
50555;SDS011;36508;52.512;13.450;2023-11-21T07:34:06;7.97;;;7.27;;
50555;SDS011;36508;52.512;13.450;2023-11-21T07:36:39;7.33;;;6.73;;
50555;SDS011;36508;52.512;13.450;2023-11-21T07:39:05;6.53;;;5.93;;
50555;SDS011;36508;52.512;13.450;2023-11-21T07:41:31;7.50;;;6.90;;
50555;SDS011;36508;52.512;13.450;2023-11-21T07:43:57;6.67;;;6.07;;
50555;SDS011;36508;52.512;13.450;2023-11-21T07:46:25;5.00;;;4.60;;
50555;SDS011;36508;52.512;13.450;2023-11-21T07:48:52;5.60;;;5.20;;
50555;SDS011;36508;52.512;13.450;2023-11-21T07:51:18;6.40;;;5.80;;
50555;SDS011;36508;52.512;13.450;2023-11-21T07:53:44;7.43;;;6.83;;
50555;SDS011;36508;52.512;13.450;2023-11-21T07:56:10;6.20;;;5.70;;
50555;SDS011;36508;52.512;13.450;2023-11-21T07:58:36;6.40;;;5.90;;
50555;SDS011;36508;52.512;13.450;2023-11-21T08:01:02;4.97;;;4.53;;
50555;SDS011;36508;52.512;13.450;2023-11-21T08:03:28;6.57;;;6.07;;
50555;SDS011;36508;52.512;13.450;2023-11-21T08:05:55;6.33;;;5.83;;
50555;SDS011;36508;52.512;13.450;2023-11-21T08:08:22;6.13;;;5.67;;
50555;SDS011;36508;52.512;13.450;2023-11-21T08:10:50;6.40;;;5.80;;
50555;SDS011;36508;52.512;13.450;2023-11-21T08:13:30;8.00;;;5.60;;
50555;SDS011;36508;52.512;13.450;2023-11-21T08:15:57;7.43;;;6.83;;
50555;SDS011;36508;52.512;13.450;2023-11-21T08:18:28;8.03;;;7.23;;
50555;SDS011;36508;52.512;13.450;2023-11-21T08:20:57;5.90;;;5.40;;
50555;SDS011;36508;52.512;13.450;2023-11-21T08:23:23;6.00;;;5.10;;
50555;SDS011;36508;52.512;13.450;2023-11-21T08:25:52;7.33;;;6.60;;
50555;SDS011;36508;52.512;13.450;2023-11-21T08:28:19;8.50;;;6.30;;
50555;SDS011;36508;52.512;13.450;2023-11-21T08:30:51;6.37;;;5.60;;
50555;SDS011;36508;52.512;13.450;2023-11-21T08:33:17;6.40;;;5.53;;
50555;SDS011;36508;52.512;13.450;2023-11-21T08:35:44;16.07;;;8.87;;
50555;SDS011;36508;52.512;13.450;2023-11-21T08:38:11;9.53;;;7.87;;
50555;SDS011;36508;52.512;13.450;2023-11-21T08:40:37;10.00;;;7.60;;
50555;SDS011;36508;52.512;13.450;2023-11-21T08:43:03;10.70;;;9.60;;
50555;SDS011;36508;52.512;13.450;2023-11-21T08:45:33;12.30;;;7.93;;
50555;SDS011;36508;52.512;13.450;2023-11-21T08:48:02;8.90;;;7.33;;
50555;SDS011;36508;52.512;13.450;2023-11-21T08:50:28;8.73;;;7.83;;
50555;SDS011;36508;52.512;13.450;2023-11-21T08:52:54;9.20;;;7.57;;
50555;SDS011;36508;52.512;13.450;2023-11-21T08:55:20;9.60;;;8.70;;
50555;SDS011;36508;52.512;13.450;2023-11-21T08:57:46;10.63;;;7.43;;
50555;SDS011;36508;52.512;13.450;2023-11-21T09:00:12;10.07;;;6.93;;
50555;SDS011;36508;52.512;13.450;2023-11-21T09:02:42;12.50;;;9.83;;
50555;SDS011;36508;52.512;13.450;2023-11-21T09:05:12;17.47;;;14.30;;
50555;SDS011;36508;52.512;13.450;2023-11-21T09:07:40;14.23;;;9.20;;
50555;SDS011;36508;52.512;13.450;2023-11-21T09:10:11;15.73;;;8.83;;
50555;SDS011;36508;52.512;13.450;2023-11-21T09:12:41;11.17;;;8.23;;
50555;SDS011;36508;52.512;13.450;2023-11-21T09:15:08;11.43;;;8.90;;
50555;SDS011;36508;52.512;13.450;2023-11-21T09:17:38;11.83;;;8.63;;
50555;SDS011;36508;52.512;13.450;2023-11-21T09:20:05;12.50;;;8.60;;
50555;SDS011;36508;52.512;13.450;2023-11-21T09:22:35;14.13;;;8.90;;
50555;SDS011;36508;52.512;13.450;2023-11-21T09:25:01;16.00;;;10.37;;
50555;SDS011;36508;52.512;13.450;2023-11-21T09:27:30;15.07;;;7.73;;
50555;SDS011;36508;52.512;13.450;2023-11-21T09:29:56;10.17;;;7.63;;
50555;SDS011;36508;52.512;13.450;2023-11-21T09:32:23;11.60;;;7.00;;
50555;SDS011;36508;52.512;13.450;2023-11-21T09:34:49;9.13;;;6.80;;
50555;SDS011;36508;52.512;13.450;2023-11-21T09:37:16;8.37;;;6.00;;
50555;SDS011;36508;52.512;13.450;2023-11-21T09:39:42;6.13;;;5.23;;
50555;SDS011;36508;52.512;13.450;2023-11-21T09:42:12;7.37;;;5.30;;
50555;SDS011;36508;52.512;13.450;2023-11-21T09:44:46;7.50;;;6.13;;
50555;SDS011;36508;52.512;13.450;2023-11-21T09:47:20;6.60;;;5.80;;
50555;SDS011;36508;52.512;13.450;2023-11-21T09:49:47;5.87;;;4.10;;
50555;SDS011;36508;52.512;13.450;2023-11-21T09:52:25;7.40;;;5.03;;
50555;SDS011;36508;52.512;13.450;2023-11-21T09:54:52;3.43;;;3.23;;
50555;SDS011;36508;52.512;13.450;2023-11-21T09:57:19;4.63;;;4.23;;
50555;SDS011;36508;52.512;13.450;2023-11-21T09:59:52;4.43;;;4.03;;
50555;SDS011;36508;52.512;13.450;2023-11-21T10:02:27;10.13;;;9.60;;
50555;SDS011;36508;52.512;13.450;2023-11-21T10:04:55;6.73;;;3.20;;
50555;SDS011;36508;52.512;13.450;2023-11-21T10:07:21;4.50;;;3.60;;
50555;SDS011;36508;52.512;13.450;2023-11-21T10:09:48;2.47;;;2.33;;
50555;SDS011;36508;52.512;13.450;2023-11-21T10:12:18;2.67;;;2.57;;
50555;SDS011;36508;52.512;13.450;2023-11-21T10:14:49;2.70;;;2.60;;
50555;SDS011;36508;52.512;13.450;2023-11-21T10:17:18;2.47;;;2.27;;
50555;SDS011;36508;52.512;13.450;2023-11-21T10:19:48;2.87;;;2.67;;
50555;SDS011;36508;52.512;13.450;2023-11-21T10:22:17;3.70;;;3.40;;
50555;SDS011;36508;52.512;13.450;2023-11-21T10:24:44;4.60;;;3.03;;
50555;SDS011;36508;52.512;13.450;2023-11-21T10:27:10;3.03;;;2.83;;
50555;SDS011;36508;52.512;13.450;2023-11-21T10:29:36;3.20;;;3.00;;
50555;SDS011;36508;52.512;13.450;2023-11-21T10:32:02;4.43;;;4.17;;
50555;SDS011;36508;52.512;13.450;2023-11-21T10:34:28;3.43;;;3.13;;
50555;SDS011;36508;52.512;13.450;2023-11-21T10:36:54;4.03;;;3.73;;
50555;SDS011;36508;52.512;13.450;2023-11-21T10:39:26;2.90;;;2.80;;
50555;SDS011;36508;52.512;13.450;2023-11-21T10:41:55;3.20;;;3.00;;
50555;SDS011;36508;52.512;13.450;2023-11-21T10:44:21;5.03;;;4.73;;
50555;SDS011;36508;52.512;13.450;2023-11-21T10:46:52;3.27;;;3.07;;
50555;SDS011;36508;52.512;13.450;2023-11-21T10:49:27;3.97;;;3.67;;
50555;SDS011;36508;52.512;13.450;2023-11-21T10:51:53;4.90;;;3.20;;
50555;SDS011;36508;52.512;13.450;2023-11-21T10:54:21;3.60;;;3.40;;
50555;SDS011;36508;52.512;13.450;2023-11-21T10:56:48;3.10;;;2.77;;
50555;SDS011;36508;52.512;13.450;2023-11-21T10:59:18;4.07;;;3.77;;
50555;SDS011;36508;52.512;13.450;2023-11-21T11:01:50;3.33;;;3.10;;
50555;SDS011;36508;52.512;13.450;2023-11-21T11:04:20;4.07;;;3.77;;
50555;SDS011;36508;52.512;13.450;2023-11-21T11:06:57;3.27;;;3.07;;
50555;SDS011;36508;52.512;13.450;2023-11-21T11:09:26;3.70;;;3.50;;
50555;SDS011;36508;52.512;13.450;2023-11-21T11:11:53;5.97;;;5.47;;
50555;SDS011;36508;52.512;13.450;2023-11-21T11:14:19;4.30;;;3.90;;
50555;SDS011;36508;52.512;13.450;2023-11-21T11:16:50;4.83;;;4.50;;
50555;SDS011;36508;52.512;13.450;2023-11-21T11:19:18;5.23;;;4.83;;
50555;SDS011;36508;52.512;13.450;2023-11-21T11:30:14;10.73;;;9.73;;
50555;SDS011;36508;52.512;13.450;2023-11-21T11:33:00;3.80;;;3.50;;
50555;SDS011;36508;52.512;13.450;2023-11-21T11:38:30;5.87;;;5.47;;
50555;SDS011;36508;52.512;13.450;2023-11-21T11:41:04;5.23;;;4.80;;
50555;SDS011;36508;52.512;13.450;2023-11-21T11:43:35;4.83;;;4.53;;
50555;SDS011;36508;52.512;13.450;2023-11-21T11:46:21;4.37;;;4.07;;
50555;SDS011;36508;52.512;13.450;2023-11-21T11:49:12;4.53;;;4.23;;
50555;SDS011;36508;52.512;13.450;2023-11-21T11:54:55;4.10;;;3.87;;
50555;SDS011;36508;52.512;13.450;2023-11-21T11:57:23;4.67;;;4.37;;
50555;SDS011;36508;52.512;13.450;2023-11-21T12:02:36;5.07;;;4.77;;
50555;SDS011;36508;52.512;13.450;2023-11-21T12:05:07;5.23;;;4.80;;
50555;SDS011;36508;52.512;13.450;2023-11-21T12:10:27;3.67;;;3.33;;
50555;SDS011;36508;52.512;13.450;2023-11-21T12:12:55;4.80;;;4.50;;
50555;SDS011;36508;52.512;13.450;2023-11-21T12:15:26;3.70;;;3.50;;
50555;SDS011;36508;52.512;13.450;2023-11-21T12:17:56;3.90;;;3.60;;
50555;SDS011;36508;52.512;13.450;2023-11-21T12:20:26;3.80;;;3.50;;
50555;SDS011;36508;52.512;13.450;2023-11-21T12:22:57;3.40;;;3.20;;
50555;SDS011;36508;52.512;13.450;2023-11-21T12:25:28;3.87;;;3.57;;
50555;SDS011;36508;52.512;13.450;2023-11-21T12:27:57;3.50;;;3.20;;
50555;SDS011;36508;52.512;13.450;2023-11-21T12:30:25;2.73;;;2.63;;
50555;SDS011;36508;52.512;13.450;2023-11-21T12:33:00;3.60;;;3.30;;
50555;SDS011;36508;52.512;13.450;2023-11-21T12:35:31;3.70;;;3.50;;
50555;SDS011;36508;52.512;13.450;2023-11-21T12:38:02;3.50;;;3.30;;
50555;SDS011;36508;52.512;13.450;2023-11-21T12:40:29;3.20;;;3.00;;
50555;SDS011;36508;52.512;13.450;2023-11-21T12:42:56;3.40;;;3.20;;
50555;SDS011;36508;52.512;13.450;2023-11-21T12:45:24;3.83;;;3.63;;
50555;SDS011;36508;52.512;13.450;2023-11-21T12:47:54;3.63;;;3.33;;
50555;SDS011;36508;52.512;13.450;2023-11-21T12:50:22;3.57;;;3.27;;
50555;SDS011;36508;52.512;13.450;2023-11-21T12:52:53;4.10;;;3.90;;
50555;SDS011;36508;52.512;13.450;2023-11-21T12:55:23;3.33;;;3.13;;
50555;SDS011;36508;52.512;13.450;2023-11-21T12:57:49;3.83;;;3.63;;
50555;SDS011;36508;52.512;13.450;2023-11-21T13:00:17;4.90;;;4.57;;
50555;SDS011;36508;52.512;13.450;2023-11-21T13:02:56;4.37;;;3.30;;
50555;SDS011;36508;52.512;13.450;2023-11-21T13:05:33;3.60;;;3.40;;
50555;SDS011;36508;52.512;13.450;2023-11-21T13:08:01;4.03;;;3.73;;
50555;SDS011;36508;52.512;13.450;2023-11-21T13:10:29;3.10;;;2.90;;
50555;SDS011;36508;52.512;13.450;2023-11-21T13:12:57;3.60;;;3.30;;
50555;SDS011;36508;52.512;13.450;2023-11-21T13:15:27;6.73;;;4.23;;
50555;SDS011;36508;52.512;13.450;2023-11-21T13:17:53;3.60;;;3.37;;
50555;SDS011;36508;52.512;13.450;2023-11-21T13:20:21;3.73;;;3.53;;
50555;SDS011;36508;52.512;13.450;2023-11-21T13:25:14;5.13;;;4.73;;
50555;SDS011;36508;52.512;13.450;2023-11-21T13:27:43;6.23;;;5.73;;
50555;SDS011;36508;52.512;13.450;2023-11-21T13:30:10;5.43;;;5.03;;
50555;SDS011;36508;52.512;13.450;2023-11-21T13:32:46;4.70;;;4.40;;
50555;SDS011;36508;52.512;13.450;2023-11-21T13:35:12;5.90;;;5.50;;
50555;SDS011;36508;52.512;13.450;2023-11-21T13:38:05;5.70;;;5.30;;
50555;SDS011;36508;52.512;13.450;2023-11-21T13:40:32;6.73;;;6.13;;
50555;SDS011;36508;52.512;13.450;2023-11-21T13:43:15;7.10;;;6.40;;
50555;SDS011;36508;52.512;13.450;2023-11-21T13:45:43;8.43;;;6.70;;
50555;SDS011;36508;52.512;13.450;2023-11-21T13:48:11;6.90;;;6.30;;
50555;SDS011;36508;52.512;13.450;2023-11-21T13:50:57;7.03;;;6.53;;
50555;SDS011;36508;52.512;13.450;2023-11-21T13:53:26;6.43;;;5.93;;
50555;SDS011;36508;52.512;13.450;2023-11-21T13:55:53;6.97;;;6.37;;
50555;SDS011;36508;52.512;13.450;2023-11-21T13:58:22;7.07;;;6.47;;
50555;SDS011;36508;52.512;13.450;2023-11-21T14:00:51;6.50;;;6.00;;
50555;SDS011;36508;52.512;13.450;2023-11-21T14:03:26;7.60;;;6.90;;
50555;SDS011;36508;52.512;13.450;2023-11-21T14:06:04;7.87;;;7.07;;
50555;SDS011;36508;52.512;13.450;2023-11-21T14:08:39;7.07;;;6.40;;
50555;SDS011;36508;52.512;13.450;2023-11-21T14:11:06;7.73;;;7.00;;
50555;SDS011;36508;52.512;13.450;2023-11-21T14:13:32;8.33;;;7.53;;
50555;SDS011;36508;52.512;13.450;2023-11-21T14:15:58;11.80;;;10.77;;
50555;SDS011;36508;52.512;13.450;2023-11-21T14:18:29;10.07;;;9.20;;
50555;SDS011;36508;52.512;13.450;2023-11-21T14:21:14;12.70;;;11.40;;
50555;SDS011;36508;52.512;13.450;2023-11-21T14:23:40;12.40;;;11.40;;
50555;SDS011;36508;52.512;13.450;2023-11-21T14:26:06;13.50;;;11.73;;
50555;SDS011;36508;52.512;13.450;2023-11-21T14:28:32;15.77;;;14.33;;
50555;SDS011;36508;52.512;13.450;2023-11-21T14:31:00;15.27;;;13.70;;
50555;SDS011;36508;52.512;13.450;2023-11-21T14:33:27;15.50;;;13.83;;
50555;SDS011;36508;52.512;13.450;2023-11-21T14:35:53;14.60;;;12.57;;
50555;SDS011;36508;52.512;13.450;2023-11-21T14:38:18;16.20;;;14.50;;
50555;SDS011;36508;52.512;13.450;2023-11-21T14:40:44;17.27;;;15.47;;
50555;SDS011;36508;52.512;13.450;2023-11-21T14:43:12;22.80;;;16.23;;
50555;SDS011;36508;52.512;13.450;2023-11-21T14:45:38;17.83;;;15.97;;
50555;SDS011;36508;52.512;13.450;2023-11-21T14:48:04;17.43;;;15.17;;
50555;SDS011;36508;52.512;13.450;2023-11-21T14:50:55;20.03;;;18.23;;
50555;SDS011;36508;52.512;13.450;2023-11-21T14:53:27;16.50;;;14.90;;
50555;SDS011;36508;52.512;13.450;2023-11-21T14:56:17;17.97;;;16.07;;
50555;SDS011;36508;52.512;13.450;2023-11-21T14:58:51;19.77;;;17.30;;
50555;SDS011;36508;52.512;13.450;2023-11-21T15:01:21;19.70;;;17.67;;
50555;SDS011;36508;52.512;13.450;2023-11-21T15:04:14;19.23;;;17.53;;